Sandringham, United Kingdom
Current Conditions -  °F | °C
As of 6:50 PM on Friday 21 Nov 2014 (Local Time) from EGYM Reporting Station
Haze Haze  
Wind Chill: 45°   Ceiling: 4700
Heat Index: 48°   Visibility: 6mi
Dew Point: 45°   Wind: 8mph
Humidity: 87%   Direction: 120°ESE
Pressure: 30"   Gusts: NA
Location:  52.82°N, 0.5°E
Report Text: EGYM 211850Z AUTO 12007KT 9000 HZ OVC047/// 09/07 Q1016 RERA
Loading
Personal Weather Stations






























Interactive Weather Map New forecast layout! Learn more

10-Day Weather Forecast

Advertisements
Track Severe Weather on mobile